Time;durP1;ratioP1;P1;durP2;ratioP2;P2;SDS_P1;SDS_P2;PMS_P1;PMS_P2;Temp;Humidity;BMP_temperature;BMP_pressure;BME280_temperature;BME280_humidity;BME280_pressure;Samples;Min_cycle;Max_cycle;Signal;HPM_P1;HPM_P2
2022/10/02 00:02:05;;;;;;;;;;;;;;;12.43;100.00;-25416.25;5038590;28;20067;-80
2022/10/02 00:05:12;;;;;;;;;;;;;;;12.45;100.00;-25416.69;4980003;28;19973;-81
2022/10/02 00:07:46;;;;;;;;;;;;;;;12.42;100.00;-25415.81;4978230;28;20413;-81
2022/10/02 00:10:58;;;;;;;;;;;;;;;12.39;100.00;-25415.22;4971499;28;20089;-81
2022/10/02 00:13:46;;;;;;;;;;;;;;;12.43;100.00;-25416.09;4958472;28;19930;-80
2022/10/02 00:17:00;;;;;;;;;;;;;;;12.46;100.00;-25416.97;4947583;28;19930;-80
2022/10/02 00:20:01;;;;;;;;;;;;;;;12.50;100.00;-25418.31;4976991;28;19922;-80
2022/10/02 00:23:14;;;;;;;;;;;;;;;12.56;100.00;-25419.91;4958301;28;19951;-83
2022/10/02 00:29:03;;;;;;;;;;;;;;;12.65;100.00;-25422.53;4940930;29;20037;-82
2022/10/02 00:35:10;;;;;;;;;;;;;;;12.69;100.00;-25423.72;4958975;28;20314;-84
2022/10/02 00:38:20;;;;;;;;;;;;;;;12.77;100.00;-25425.91;5015424;28;19917;-80
2022/10/02 00:41:24;;;;;;;;;;;;;;;12.79;100.00;-25426.47;5024236;28;19918;-82
2022/10/02 00:47:24;;;;;;;;;;;;;;;12.83;100.00;-25427.66;5032391;28;19940;-81
2022/10/02 00:50:45;;;;;;;;;;;;;;;12.86;100.00;-25428.53;5032287;28;19965;-81
2022/10/02 00:53:52;;;;;;;;;;;;;;;12.86;100.00;-25428.53;4995209;28;20551;-81
2022/10/02 00:57:03;;;;;;;;;;;;;;;12.88;100.00;-25428.97;5011265;28;19957;-82
2022/10/02 01:00:25;;;;;;;;;;;;;;;12.92;100.00;-25430.13;5034877;28;19975;-80
2022/10/02 01:03:30;;;;;;;;;;;;;;;12.93;100.00;-25430.56;5054756;28;20012;-84
2022/10/02 01:22:55;;;;;;;;;;;;;;;12.97;100.00;-25431.44;5034272;28;19933;-81
2022/10/02 01:26:12;;;;;;;;;;;;;;;12.98;100.00;-25431.75;5033203;28;19921;-82
2022/10/02 01:29:47;;;;;;;;;;;;;;;12.96;100.00;-25431.31;5028546;28;20008;-81
2022/10/02 01:33:03;;;;;;;;;;;;;;;12.92;100.00;-25430.28;4995352;28;19932;-80
2022/10/02 01:39:21;;;;;;;;;;;;;;;12.82;100.00;-25427.38;4985513;28;19929;-80
2022/10/02 01:42:06;;;;;;;;;;;;;;;12.75;100.00;-25425.31;4984236;28;20017;-80
2022/10/02 01:45:30;;;;;;;;;;;;;;;12.70;100.00;-25423.84;4994798;28;20030;-80
2022/10/02 01:48:37;;;;;;;;;;;;;;;12.68;100.00;-25423.41;4989766;28;19917;-81
2022/10/02 01:51:49;;;;;;;;;;;;;;;12.69;100.00;-25423.72;4992457;28;19951;-83
2022/10/02 01:55:00;;;;;;;;;;;;;;;12.64;100.00;-25422.09;4996060;28;19917;-80
2022/10/02 02:04:09;;;;;;;;;;;;;;;12.61;100.00;-25421.22;5013762;28;19979;-81
2022/10/02 02:10:24;;;;;;;;;;;;;;;12.61;100.00;-25421.22;5042161;28;19975;-81
2022/10/02 02:13:36;;;;;;;;;;;;;;;12.61;100.00;-25421.22;5072479;28;19916;-81
2022/10/02 02:20:03;;;;;;;;;;;;;;;12.52;100.00;-25418.88;5053104;28;19927;-81
2022/10/02 02:23:15;;;;;;;;;;;;;;;12.51;100.00;-25418.59;5059457;28;19928;-83
2022/10/02 02:29:32;;;;;;;;;;;;;;;12.53;100.00;-25419.03;5048341;28;19967;-82
2022/10/02 02:32:54;;;;;;;;;;;;;;;12.54;100.00;-25419.31;5061683;28;19924;-82
2022/10/02 02:36:03;;;;;;;;;;;;;;;12.55;100.00;-25419.75;5032560;28;20580;-81
2022/10/02 02:39:24;;;;;;;;;;;;;;;12.59;100.00;-25420.63;5049384;28;20297;-85
2022/10/02 02:42:30;;;;;;;;;;;;;;;12.64;100.00;-25422.09;5032936;28;19971;-84
2022/10/02 02:45:35;;;;;;;;;;;;;;;12.67;100.00;-25423.13;4948330;28;19973;-85
2022/10/02 02:48:49;;;;;;;;;;;;;;;12.64;100.00;-25422.09;4975908;28;19917;-84
2022/10/02 02:52:23;;;;;;;;;;;;;;;12.57;100.00;-25420.34;4968453;28;19918;-82
2022/10/02 02:55:32;;;;;;;;;;;;;;;12.49;100.00;-25417.84;4920231;29;19930;-81
2022/10/02 02:58:41;;;;;;;;;;;;;;;12.50;100.00;-25418.31;4929921;29;19952;-84
2022/10/02 03:01:49;;;;;;;;;;;;;;;12.56;100.00;-25420.06;4896288;29;20396;-83
2022/10/02 03:07:56;;;;;;;;;;;;;;;12.73;100.00;-25424.72;4859213;29;20023;-83
2022/10/02 03:14:16;;;;;;;;;;;;;;;12.78;100.00;-25426.03;4854476;29;20007;-81
2022/10/02 03:24:01;;;;;;;;;;;;;;;12.80;100.00;-25426.63;4836414;29;19928;-82
2022/10/02 03:27:00;;;;;;;;;;;;;;;12.75;100.00;-25425.31;4858864;29;19924;-80
2022/10/02 03:29:56;;;;;;;;;;;;;;;12.74;100.00;-25425.03;4875764;29;20020;-82
2022/10/02 03:32:52;;;;;;;;;;;;;;;12.69;100.00;-25423.72;4878096;29;19926;-81
2022/10/02 03:36:15;;;;;;;;;;;;;;;12.62;100.00;-25421.53;4878137;29;20004;-83
2022/10/02 03:38:55;;;;;;;;;;;;;;;12.55;100.00;-25419.63;4893100;29;19945;-81
2022/10/02 03:42:08;;;;;;;;;;;;;;;12.52;100.00;-25418.75;4878202;29;19924;-81
2022/10/02 03:45:17;;;;;;;;;;;;;;;12.41;100.00;-25415.66;4897178;29;20339;-81
2022/10/02 03:48:31;;;;;;;;;;;;;;;12.35;100.00;-25414.06;4900879;29;19919;-81
2022/10/02 03:51:04;;;;;;;;;;;;;;;12.33;100.00;-25413.31;4915548;29;19919;-81
2022/10/02 03:57:18;;;;;;;;;;;;;;;12.22;100.00;-25410.25;4915589;29;19954;-83
2022/10/02 04:00:22;;;;;;;;;;;;;;;12.15;100.00;-25408.34;4917206;29;20002;-79
2022/10/02 04:03:17;;;;;;;;;;;;;;;12.07;100.00;-25406.00;4915422;29;20009;-79
2022/10/02 04:09:24;;;;;;;;;;;;;;;12.02;100.00;-25404.69;4896003;29;19930;-79
2022/10/02 04:12:26;;;;;;;;;;;;;;;11.96;100.00;-25402.94;4896771;29;19919;-80
2022/10/02 04:15:27;;;;;;;;;;;;;;;11.97;100.00;-25403.09;4890908;29;20357;-81
2022/10/02 04:18:21;;;;;;;;;;;;;;;11.94;100.00;-25402.34;4881522;29;19923;-83
2022/10/02 04:21:18;;;;;;;;;;;;;;;11.96;100.00;-25402.78;4865047;29;20352;-78
2022/10/02 04:24:27;;;;;;;;;;;;;;;11.90;100.00;-25401.03;4875939;29;19976;-79
2022/10/02 04:27:50;;;;;;;;;;;;;;;11.85;100.00;-25399.88;4899480;29;20018;-80
2022/10/02 04:34:11;;;;;;;;;;;;;;;11.75;100.00;-25396.94;4990520;28;19937;-83
2022/10/02 04:37:20;;;;;;;;;;;;;;;11.75;100.00;-25396.78;5018528;28;20459;-81
2022/10/02 04:40:35;;;;;;;;;;;;;;;11.74;100.00;-25396.50;5046923;28;19925;-83
2022/10/02 04:43:39;;;;;;;;;;;;;;;11.73;100.00;-25396.19;5044531;28;19917;-81
2022/10/02 04:46:42;;;;;;;;;;;;;;;11.68;100.00;-25395.03;5049422;28;19932;-83
2022/10/02 04:49:54;;;;;;;;;;;;;;;11.61;100.00;-25392.97;5055220;28;19917;-83
2022/10/02 04:53:11;;;;;;;;;;;;;;;11.59;100.00;-25392.41;5032883;28;19932;-82
2022/10/02 04:58:51;;;;;;;;;;;;;;;11.66;100.00;-25394.44;5056575;28;19923;-83
2022/10/02 05:02:10;;;;;;;;;;;;;;;11.79;100.00;-25398.09;5055663;28;19917;-82
2022/10/02 05:05:18;;;;;;;;;;;;;;;11.95;100.00;-25402.50;4995759;28;19949;-83
2022/10/02 05:08:27;;;;;;;;;;;;;;;12.02;100.00;-25404.56;4986160;28;20318;-82
2022/10/02 05:11:07;;;;;;;;;;;;;;;12.04;100.00;-25405.13;4994547;28;19918;-80
2022/10/02 05:14:00;;;;;;;;;;;;;;;12.03;100.00;-25405.00;5025259;28;19933;-81
2022/10/02 05:16:29;;;;;;;;;;;;;;;12.00;100.00;-25403.97;5038208;28;20004;-81
2022/10/02 05:19:09;;;;;;;;;;;;;;;11.93;100.00;-25401.91;5040979;28;19920;-80
2022/10/02 05:22:07;;;;;;;;;;;;;;;11.90;100.00;-25401.03;5075946;28;19935;-81
2022/10/02 05:24:51;;;;;;;;;;;;;;;11.92;100.00;-25401.63;5030320;28;19920;-80
2022/10/02 05:27:57;;;;;;;;;;;;;;;11.95;100.00;-25402.50;5041259;28;19928;-80
2022/10/02 05:31:11;;;;;;;;;;;;;;;12.00;100.00;-25404.13;5030810;28;19917;-80
2022/10/02 05:34:31;;;;;;;;;;;;;;;12.02;100.00;-25404.56;5038217;28;19925;-81
2022/10/02 05:37:37;;;;;;;;;;;;;;;12.03;100.00;-25404.84;5035122;28;19932;-80
2022/10/02 05:40:41;;;;;;;;;;;;;;;12.05;100.00;-25405.44;5053392;28;19967;-80
2022/10/02 05:43:25;;;;;;;;;;;;;;;12.08;100.00;-25406.31;5053382;28;19916;-81
2022/10/02 05:46:41;;;;;;;;;;;;;;;12.10;100.00;-25406.88;5051124;28;19924;-82
2022/10/02 05:49:21;;;;;;;;;;;;;;;12.10;100.00;-25406.88;5051312;28;19923;-81
2022/10/02 05:52:39;;;;;;;;;;;;;;;12.05;100.00;-25405.44;5052902;28;19989;-82
2022/10/02 05:55:35;;;;;;;;;;;;;;;12.07;100.00;-25406.00;5038094;28;19916;-82
2022/10/02 05:59:04;;;;;;;;;;;;;;;12.09;100.00;-25406.44;5072134;28;19916;-81
2022/10/02 06:14:03;;;;;;;;;;;;;;;12.36;100.00;-25414.34;5074817;28;20292;-83
2022/10/02 06:56:13;;;;;;;;;;;;;;;12.92;100.00;-25430.28;5029357;28;20056;-80
2022/10/02 07:48:53;;;;;;;;;;;;;;;14.29;100.00;-25469.09;5077518;28;19990;-80
2022/10/02 08:27:59;;;;;;;;;;;;;;;15.53;100.00;-25504.06;5084144;28;19938;-83
2022/10/02 08:34:11;;;;;;;;;;;;;;;15.80;100.00;-25511.75;5015045;28;20036;-84
2022/10/02 08:37:22;;;;;;;;;;;;;;;15.72;100.00;-25509.44;4976082;28;19921;-83
2022/10/02 08:49:35;;;;;;;;;;;;;;;16.96;100.00;-17291.75;4955525;28;20041;-83
2022/10/02 09:11:14;;;;;;;;;;;;;;;16.46;100.00;8885.53;5055962;28;19935;-83
2022/10/02 09:17:49;;;;;;;;;;;;;;;16.05;100.00;7878.41;4994201;28;19925;-82
2022/10/02 09:24:14;;;;;;;;;;;;;;;15.71;100.00;4220.84;5012581;28;19968;-82
2022/10/02 09:27:19;;;;;;;;;;;;;;;15.66;100.00;1899.53;4994732;28;19922;-82
2022/10/02 09:36:34;;;;;;;;;;;;;;;16.22;100.00;7218.28;4956703;29;19976;-83
2022/10/02 09:45:51;;;;;;;;;;;;;;;16.90;100.00;28236.63;4936065;29;19966;-83
2022/10/02 09:48:58;;;;;;;;;;;;;;;17.11;100.00;31593.88;4936783;29;19918;-81
2022/10/02 09:52:05;;;;;;;;;;;;;;;17.03;100.00;44661.88;5010522;28;20397;-81
2022/10/02 09:55:08;;;;;;;;;;;;;;;16.95;100.00;61138.91;5010880;28;19968;-79
2022/10/02 09:57:57;;;;;;;;;;;;;;;16.91;100.00;87513.09;5013699;28;20514;-79
2022/10/02 10:00:26;;;;;;;;;;;;;;;16.95;100.00;92612.53;5012625;28;19928;-84
2022/10/02 10:03:28;;;;;;;;;;;;;;;16.90;100.00;103490.41;5037116;28;19917;-79
2022/10/02 10:06:29;;;;;;;;;;;;;;;16.75;100.00;103804.44;5032349;28;19917;-79
2022/10/02 10:09:26;;;;;;;;;;;;;;;16.82;100.00;104498.59;5034776;28;19917;-82
2022/10/02 10:12:13;;;;;;;;;;;;;;;17.04;100.00;110677.53;4992779;28;19935;-85
2022/10/02 10:15:02;;;;;;;;;;;;;;;16.95;100.00;146993.22;4991710;28;20267;-82
2022/10/02 10:17:47;;;;;;;;;;;;;;;16.86;100.00;146971.50;4995948;28;20009;-80
2022/10/02 10:20:39;;;;;;;;;;;;;;;16.69;100.00;146929.28;5010000;28;20416;-79
2022/10/02 10:23:36;;;;;;;;;;;;;;;16.55;100.00;146894.78;5081413;28;20004;-80
2022/10/02 10:26:13;;;;;;;;;;;;;;;16.40;100.00;146856.47;5075037;28;19955;-79
2022/10/02 10:28:43;;;;;;;;;;;;;;;16.60;100.00;146906.28;5075292;28;19916;-83
2022/10/02 10:31:29;;;;;;;;;;;;;;;16.81;100.00;146959.97;5093262;28;20015;-80
2022/10/02 10:34:24;;;;;;;;;;;;;;;16.96;100.00;146997.03;5075175;28;19920;-81
2022/10/02 10:39:49;;;;;;;;;;;;;;;16.81;100.00;146958.66;5092938;28;19931;-84
2022/10/02 10:42:36;;;;;;;;;;;;;;;16.54;100.00;146343.88;5092739;28;20253;-84
2022/10/02 10:45:07;;;;;;;;;;;;;;;16.51;100.00;133490.63;5076194;28;19920;-85
2022/10/02 10:47:33;;;;;;;;;;;;;;;16.68;100.00;127358.94;5075460;28;19923;-84
2022/10/02 10:50:27;;;;;;;;;;;;;;;16.71;100.00;145178.94;5078468;28;20265;-83
2022/10/02 10:53:11;;;;;;;;;;;;;;;16.73;100.00;146938.22;5079615;28;19923;-80
2022/10/02 10:55:49;;;;;;;;;;;;;;;16.85;100.00;146970.16;5078183;28;19927;-83
2022/10/02 10:58:28;;;;;;;;;;;;;;;16.91;100.00;146983.00;5096899;28;19962;-78
2022/10/02 11:01:06;;;;;;;;;;;;;;;16.81;100.00;146958.66;5062940;28;19973;-84
2022/10/02 11:03:51;;;;;;;;;;;;;;;16.80;100.00;146956.13;5078673;28;19952;-81
2022/10/02 11:06:25;;;;;;;;;;;;;;;16.82;100.00;146962.47;5081701;28;19917;-80
2022/10/02 11:09:10;;;;;;;;;;;;;;;16.83;100.00;146965.06;5080656;28;19920;-80
2022/10/02 11:11:56;;;;;;;;;;;;;;;16.86;100.00;146972.78;5080643;28;19916;-79
2022/10/02 11:14:42;;;;;;;;;;;;;;;17.05;100.00;147018.78;5080797;28;20273;-79
2022/10/02 11:17:25;;;;;;;;;;;;;;;17.23;100.00;147064.81;5082406;28;19985;-80
2022/10/02 11:20:19;;;;;;;;;;;;;;;17.35;100.00;147092.91;5100246;28;19918;-79
2022/10/02 11:23:05;;;;;;;;;;;;;;;17.40;100.00;147107.00;5081241;28;20288;-84
2022/10/02 11:25:31;;;;;;;;;;;;;;;17.13;100.00;147039.22;5080080;28;19923;-81
2022/10/02 11:28:09;;;;;;;;;;;;;;;17.07;100.00;147023.88;5083965;28;19920;-85
2022/10/02 11:30:37;;;;;;;;;;;;;;;17.11;100.00;147032.84;5083338;28;20024;-81
2022/10/02 11:33:16;;;;;;;;;;;;;;;17.14;100.00;147040.53;5097243;28;19916;-82
2022/10/02 11:35:47;;;;;;;;;;;;;;;17.13;100.00;147039.22;5079538;28;20411;-80
2022/10/02 11:38:31;;;;;;;;;;;;;;;16.91;100.00;146983.00;5078052;28;19962;-79
2022/10/02 11:41:18;;;;;;;;;;;;;;;17.05;100.00;147020.06;5094754;28;19928;-81
2022/10/02 11:43:51;;;;;;;;;;;;;;;17.21;100.00;147058.41;5091206;28;20427;-81
2022/10/02 11:46:22;;;;;;;;;;;;;;;17.39;100.00;147103.16;5075812;28;19916;-81
2022/10/02 11:49:08;;;;;;;;;;;;;;;17.47;100.00;147123.59;5076133;28;19923;-78
2022/10/02 11:51:59;;;;;;;;;;;;;;;17.58;100.00;147151.72;5091807;28;20418;-80
2022/10/02 11:54:27;;;;;;;;;;;;;;;17.52;100.00;147135.09;5083079;28;19970;-80
2022/10/02 11:56:59;;;;;;;;;;;;;;;17.61;100.00;147158.13;5085303;28;19916;-82
2022/10/02 11:59:54;;;;;;;;;;;;;;;17.80;100.00;147205.41;5084020;28;19970;-78
2022/10/02 12:02:31;;;;;;;;;;;;;;;18.21;100.00;147306.50;5011352;28;20001;-83
2022/10/02 12:05:07;;;;;;;;;;;;;;;18.44;100.00;147364.06;5082035;28;19916;-83
2022/10/02 12:07:35;;;;;;;;;;;;;;;17.75;100.00;147193.91;5097754;28;19920;-80
2022/10/02 12:10:20;;;;;;;;;;;;;;;17.44;100.00;147114.66;5078437;28;19973;-83
2022/10/02 12:12:54;;;;;;;;;;;;;;;16.94;100.00;146991.94;5077074;28;19934;-80
2022/10/02 12:15:44;;;;;;;;;;;;;;;16.45;100.00;146869.22;5078078;28;20010;-83
2022/10/02 12:18:12;;;;;;;;;;;;;;;16.26;100.00;146821.97;5067218;28;19916;-80
2022/10/02 12:26:57;;;;;;;;;;;;;;;16.33;100.00;126940.94;5094868;28;19923;-81
2022/10/02 12:29:39;;;;;;;;;;;;;;;16.50;100.00;120819.03;5077735;28;19912;-82
2022/10/02 12:32:09;;;;;;;;;;;;;;;16.48;100.00;115007.06;5094637;28;20313;-78
2022/10/02 12:34:35;;;;;;;;;;;;;;;16.42;100.00;125248.38;5075389;28;19923;-79
2022/10/02 12:37:00;;;;;;;;;;;;;;;16.34;100.00;133452.16;5076718;28;19916;-78
2022/10/02 12:39:36;;;;;;;;;;;;;;;16.29;100.00;117701.88;5075732;28;19916;-79
2022/10/02 12:42:16;;;;;;;;;;;;;;;16.44;100.00;111586.78;5075710;28;19912;-77
2022/10/02 12:44:43;;;;;;;;;;;;;;;16.52;100.00;129722.22;5094885;28;19923;-78
2022/10/02 12:47:08;;;;;;;;;;;;;;;16.44;100.00;142015.66;5076531;28;20335;-78
2022/10/02 12:49:46;;;;;;;;;;;;;;;16.30;100.00;146832.22;5075813;28;19923;-78
2022/10/02 12:52:30;;;;;;;;;;;;;;;16.23;100.00;146814.31;5076910;28;19912;-79
2022/10/02 12:55:14;;;;;;;;;;;;;;;16.19;100.00;146804.06;5058630;28;19920;-78
2022/10/02 12:57:57;;;;;;;;;;;;;;;16.29;100.00;146829.63;5095409;28;20013;-78
2022/10/02 13:00:32;;;;;;;;;;;;;;;16.21;100.00;146810.47;5076485;28;19958;-78
2022/10/02 13:03:16;;;;;;;;;;;;;;;16.17;100.00;146798.97;5074916;28;19920;-79
2022/10/02 13:05:54;;;;;;;;;;;;;;;16.33;100.00;146839.88;5076657;28;20015;-78
2022/10/02 13:08:26;;;;;;;;;;;;;;;16.43;100.00;146865.38;5075000;28;19916;-76
2022/10/02 13:11:07;;;;;;;;;;;;;;;16.53;100.00;146889.69;5076717;28;19927;-78
2022/10/02 13:13:41;;;;;;;;;;;;;;;16.56;100.00;146896.06;5075965;28;19989;-79
2022/10/02 13:16:19;;;;;;;;;;;;;;;16.55;100.00;146893.53;5074639;28;20403;-77
2022/10/02 13:18:45;;;;;;;;;;;;;;;16.55;100.00;146893.53;5076144;28;19931;-77
2022/10/02 13:21:22;;;;;;;;;;;;;;;16.40;100.00;146857.72;5075991;28;19916;-76
2022/10/02 13:23:48;;;;;;;;;;;;;;;16.32;100.00;146838.56;5074471;28;19932;-77
2022/10/02 13:26:33;;;;;;;;;;;;;;;16.27;100.00;146824.53;5075740;28;19916;-76
2022/10/02 13:29:08;;;;;;;;;;;;;;;16.39;100.00;146855.19;5034885;28;19991;-77
2022/10/02 13:31:37;;;;;;;;;;;;;;;16.36;100.00;146846.22;5091981;28;20479;-77
2022/10/02 13:34:17;;;;;;;;;;;;;;;16.21;100.00;146809.22;5075739;28;19916;-77
2022/10/02 13:37:09;;;;;;;;;;;;;;;16.07;100.00;146776.00;5070105;28;20027;-76
2022/10/02 13:39:37;;;;;;;;;;;;;;;15.99;100.00;146755.56;5070787;28;20399;-77
2022/10/02 13:42:17;;;;;;;;;;;;;;;16.08;100.00;146777.25;5076812;28;19916;-76
2022/10/02 13:44:43;;;;;;;;;;;;;;;16.01;100.00;146760.66;5078862;28;19938;-78
2022/10/02 13:47:21;;;;;;;;;;;;;;;16.09;100.00;146781.06;5076446;28;20431;-78
2022/10/02 13:49:53;;;;;;;;;;;;;;;16.01;100.00;146759.41;5076880;28;19921;-83
2022/10/02 13:52:37;;;;;;;;;;;;;;;15.95;100.00;146746.59;5076090;28;19916;-81
2022/10/02 13:55:12;;;;;;;;;;;;;;;15.94;100.00;146213.75;5076607;28;19916;-79
2022/10/02 13:58:09;;;;;;;;;;;;;;;16.13;100.00;135804.28;5077354;28;20007;-77
2022/10/02 14:00:39;;;;;;;;;;;;;;;16.34;100.00;144631.41;5036680;28;19913;-77
2022/10/02 14:03:05;;;;;;;;;;;;;;;16.46;100.00;146871.78;5081940;28;20360;-81
2022/10/02 14:06:03;;;;;;;;;;;;;;;16.45;100.00;146870.53;5077266;28;19916;-80
2022/10/02 14:08:47;;;;;;;;;;;;;;;16.31;100.00;146834.72;5033681;28;20360;-78
2022/10/02 14:11:15;;;;;;;;;;;;;;;16.36;100.00;146847.53;5077052;28;20387;-78
2022/10/02 14:13:43;;;;;;;;;;;;;;;16.41;100.00;146860.28;5075172;28;19971;-77
2022/10/02 14:16:16;;;;;;;;;;;;;;;16.33;100.00;146839.88;5076064;28;19938;-78
2022/10/02 14:18:44;;;;;;;;;;;;;;;16.39;100.00;146855.19;5077856;28;19954;-82
2022/10/02 14:21:22;;;;;;;;;;;;;;;16.22;100.00;146813.03;5075873;28;20280;-80
2022/10/02 14:23:54;;;;;;;;;;;;;;;16.31;100.00;146834.72;5077196;28;19963;-84
2022/10/02 14:26:40;;;;;;;;;;;;;;;16.38;100.00;146851.38;5077667;28;19958;-78
2022/10/02 14:29:22;;;;;;;;;;;;;;;16.20;100.00;146807.91;5073539;28;19957;-78
2022/10/02 14:32:07;;;;;;;;;;;;;;;16.24;100.00;146816.88;5092129;28;19924;-77
2022/10/02 14:34:51;;;;;;;;;;;;;;;16.41;100.00;146860.28;5073013;28;19943;-79
2022/10/02 14:37:36;;;;;;;;;;;;;;;16.41;100.00;146859.03;5073391;28;20011;-79
2022/10/02 14:40:09;;;;;;;;;;;;;;;16.38;100.00;146851.38;5073765;28;19923;-78
2022/10/02 14:42:45;;;;;;;;;;;;;;;16.42;100.00;146862.88;5074526;28;19970;-80
2022/10/02 14:45:25;;;;;;;;;;;;;;;16.55;100.00;146893.53;5075063;28;19916;-79
2022/10/02 14:47:56;;;;;;;;;;;;;;;16.76;100.00;146947.16;5073496;28;20064;-74
2022/10/02 14:50:36;;;;;;;;;;;;;;;16.64;100.00;146917.78;5073706;28;20320;-77
2022/10/02 14:53:08;;;;;;;;;;;;;;;16.67;100.00;146924.16;5073468;28;20018;-77
2022/10/02 14:55:48;;;;;;;;;;;;;;;16.73;100.00;146938.22;5072771;28;19920;-75
2022/10/02 14:58:29;;;;;;;;;;;;;;;16.65;100.00;146920.31;5073159;28;19920;-76
2022/10/02 15:01:13;;;;;;;;;;;;;;;16.52;100.00;146887.13;5073067;28;19920;-80
2022/10/02 15:03:50;;;;;;;;;;;;;;;16.36;100.00;146847.53;5074022;28;19916;-77
2022/10/02 15:06:24;;;;;;;;;;;;;;;16.30;100.00;146833.47;5073435;28;19923;-75
2022/10/02 15:09:24;;;;;;;;;;;;;;;16.11;100.00;146786.22;5072283;28;19922;-76
2022/10/02 15:11:52;;;;;;;;;;;;;;;15.81;100.00;146710.84;5030519;28;19916;-76
2022/10/02 15:14:27;;;;;;;;;;;;;;;15.89;100.00;146730.00;5073869;28;19924;-78
2022/10/02 15:19:49;;;;;;;;;;;;;;;15.71;100.00;146686.56;5078723;28;19919;-75
2022/10/02 15:22:18;;;;;;;;;;;;;;;15.83;100.00;146714.69;5060591;28;19924;-75
2022/10/02 15:24:45;;;;;;;;;;;;;;;15.97;100.00;146750.44;5095289;28;19950;-75
2022/10/02 15:27:29;;;;;;;;;;;;;;;16.05;100.00;146770.91;5065049;28;19977;-78
2022/10/02 15:30:21;;;;;;;;;;;;;;;15.95;100.00;146746.59;5072638;28;19912;-75
2022/10/02 15:32:59;;;;;;;;;;;;;;;16.00;100.00;146758.09;5058435;28;19929;-75
2022/10/02 15:35:39;;;;;;;;;;;;;;;15.87;100.00;146724.91;5070188;28;19923;-76
2022/10/02 15:38:23;;;;;;;;;;;;;;;15.77;100.00;146700.66;5053439;28;20019;-75
2022/10/02 15:41:08;;;;;;;;;;;;;;;15.70;100.00;146682.72;5072701;28;19946;-77
2022/10/02 15:43:52;;;;;;;;;;;;;;;15.53;100.00;146641.84;5073113;28;19924;-76
2022/10/02 15:46:20;;;;;;;;;;;;;;;15.44;100.00;146618.88;5074168;28;19920;-74
2022/10/02 15:48:46;;;;;;;;;;;;;;;15.39;100.00;146607.38;5071682;28;19916;-76
2022/10/02 15:51:31;;;;;;;;;;;;;;;15.31;100.00;146586.97;5068437;28;20587;-79
2022/10/02 15:54:07;;;;;;;;;;;;;;;15.31;100.00;146586.97;5091933;28;19917;-77
2022/10/02 15:56:51;;;;;;;;;;;;;;;15.25;100.00;146572.91;5069932;28;19936;-76
2022/10/02 15:59:37;;;;;;;;;;;;;;;15.19;100.00;146557.59;5085224;28;19918;-75
2022/10/02 16:02:05;;;;;;;;;;;;;;;15.21;100.00;146561.44;5073885;28;19945;-77
2022/10/02 16:04:33;;;;;;;;;;;;;;;15.11;100.00;146535.94;5091717;28;19963;-75
2022/10/02 16:07:17;;;;;;;;;;;;;;;15.11;100.00;146535.94;5074032;28;19967;-77
2022/10/02 16:09:46;;;;;;;;;;;;;;;15.10;100.00;146533.34;5073827;28;19919;-75
2022/10/02 16:12:35;;;;;;;;;;;;;;;15.00;100.00;146510.38;5073184;28;19967;-76
2022/10/02 16:15:22;;;;;;;;;;;;;;;14.95;100.00;146496.38;5074081;28;19916;-76
2022/10/02 16:18:14;;;;;;;;;;;;;;;14.90;100.00;146486.16;5088519;28;19969;-77
2022/10/02 16:20:55;;;;;;;;;;;;;;;14.74;100.00;146444.03;5073793;28;19923;-75
2022/10/02 16:23:21;;;;;;;;;;;;;;;14.75;100.00;146446.63;5097594;28;19951;-74
2022/10/02 16:26:00;;;;;;;;;;;;;;;14.73;100.00;146182.81;5086558;28;19917;-74
2022/10/02 16:28:25;;;;;;;;;;;;;;;14.60;100.00;128275.16;5051188;28;19981;-74
2022/10/02 16:30:51;;;;;;;;;;;;;;;14.49;100.00;127910.13;5052980;28;20016;-75
2022/10/02 16:33:24;;;;;;;;;;;;;;;14.41;100.00;128233.56;5052588;28;19917;-75
2022/10/02 16:36:09;;;;;;;;;;;;;;;14.42;100.00;134726.00;5053434;28;19922;-75
2022/10/02 16:38:35;;;;;;;;;;;;;;;14.40;100.00;129937.41;5054406;28;19961;-75
2022/10/02 16:41:10;;;;;;;;;;;;;;;14.30;100.00;126162.63;5043962;28;19927;-74
2022/10/02 16:43:57;;;;;;;;;;;;;;;14.33;100.00;119350.63;5055756;28;19916;-75
2022/10/02 16:46:35;;;;;;;;;;;;;;;14.31;100.00;116282.34;5080665;28;19917;-74
2022/10/02 16:49:00;;;;;;;;;;;;;;;14.24;100.00;110828.06;5036631;28;19966;-74
2022/10/02 16:51:31;;;;;;;;;;;;;;;14.22;100.00;100981.19;5036311;28;20019;-77
2022/10/02 16:54:03;;;;;;;;;;;;;;;14.12;100.00;89793.53;5035385;28;19924;-75
2022/10/02 16:56:32;;;;;;;;;;;;;;;14.02;100.00;78641.16;5036064;28;19917;-75
2022/10/02 16:58:58;;;;;;;;;;;;;;;13.99;100.00;70220.63;5065849;28;19924;-74
2022/10/02 17:01:26;;;;;;;;;;;;;;;14.00;100.00;61823.19;5055599;28;20242;-75
2022/10/02 17:04:07;;;;;;;;;;;;;;;13.92;100.00;58795.81;5056434;28;19916;-75
2022/10/02 17:06:44;;;;;;;;;;;;;;;13.82;100.00;51751.53;5073734;28;19917;-75
2022/10/02 17:09:30;;;;;;;;;;;;;;;13.72;100.00;44721.13;5055554;28;19916;-75
2022/10/02 17:12:18;;;;;;;;;;;;;;;13.65;100.00;37375.22;5056257;28;19916;-74
2022/10/02 17:14:50;;;;;;;;;;;;;;;13.64;100.00;31711.84;5055101;28;19962;-73
2022/10/02 17:17:25;;;;;;;;;;;;;;;13.62;100.00;26388.69;5040541;28;19921;-75
2022/10/02 17:19:59;;;;;;;;;;;;;;;13.59;100.00;22068.81;5036205;28;19917;-76
2022/10/02 17:22:43;;;;;;;;;;;;;;;13.55;100.00;19411.66;5042123;28;19924;-75
2022/10/02 17:25:15;;;;;;;;;;;;;;;13.51;100.00;16756.91;5056028;28;19999;-76
2022/10/02 17:27:59;;;;;;;;;;;;;;;13.45;100.00;15097.66;5056522;28;19927;-74
2022/10/02 17:30:26;;;;;;;;;;;;;;;13.39;100.00;12115.00;5035133;28;19975;-76
2022/10/02 17:33:11;;;;;;;;;;;;;;;13.33;100.00;9465.66;5035885;28;19927;-74
2022/10/02 17:35:51;;;;;;;;;;;;;;;13.29;100.00;6158.47;5034950;28;19921;-74
2022/10/02 17:38:35;;;;;;;;;;;;;;;13.23;100.00;3514.34;5035878;28;19921;-77
2022/10/02 17:41:09;;;;;;;;;;;;;;;13.20;100.00;-117.00;5051115;28;20005;-76
2022/10/02 17:43:36;;;;;;;;;;;;;;;13.16;100.00;-2755.59;5054658;28;19974;-75
2022/10/02 17:46:01;;;;;;;;;;;;;;;13.13;100.00;-4733.22;5055723;28;19917;-74
2022/10/02 17:48:45;;;;;;;;;;;;;;;13.11;100.00;-6050.94;5055401;28;19943;-76
2022/10/02 17:51:10;;;;;;;;;;;;;;;13.08;100.00;-7368.13;5053402;28;19917;-78
2022/10/02 17:56:54;;;;;;;;;;;;;;;12.97;100.00;-10329.50;5073137;28;20024;-79
2022/10/02 17:59:38;;;;;;;;;;;;;;;12.91;100.00;-12302.06;5055160;28;19962;-76
2022/10/02 18:02:23;;;;;;;;;;;;;;;12.88;100.00;-13944.97;5055503;28;20396;-74
2022/10/02 18:04:52;;;;;;;;;;;;;;;12.79;100.00;-14929.41;5054481;28;19916;-76
2022/10/02 18:07:37;;;;;;;;;;;;;;;12.76;100.00;-15585.81;5054596;28;19920;-79
2022/10/02 18:10:09;;;;;;;;;;;;;;;12.71;100.00;-16570.00;5071178;28;20331;-75
2022/10/02 18:12:55;;;;;;;;;;;;;;;12.70;100.00;-17554.44;5054078;28;19924;-74
2022/10/02 18:15:26;;;;;;;;;;;;;;;12.69;100.00;-18538.56;5054574;28;19939;-74
2022/10/02 18:18:10;;;;;;;;;;;;;;;12.65;100.00;-19193.97;5054188;28;19917;-76
2022/10/02 18:20:51;;;;;;;;;;;;;;;12.60;100.00;-20176.78;5054678;28;19912;-75
2022/10/02 18:23:35;;;;;;;;;;;;;;;12.59;100.00;-20504.31;5059622;28;19974;-76
2022/10/02 18:26:01;;;;;;;;;;;;;;;12.57;100.00;-21159.59;5075723;28;19961;-79
2022/10/02 18:28:42;;;;;;;;;;;;;;;12.56;100.00;-21487.25;5075867;28;19916;-75
2022/10/02 18:31:26;;;;;;;;;;;;;;;12.46;100.00;-22467.91;5076386;28;19927;-76
2022/10/02 18:33:55;;;;;;;;;;;;;;;12.51;100.00;-24761.72;5073932;28;20032;-79
2022/10/02 18:36:36;;;;;;;;;;;;;;;12.47;100.00;-25415.50;5076139;28;19923;-79
2022/10/02 18:39:16;;;;;;;;;;;;;;;12.43;100.00;-25416.09;5073971;28;19916;-80
2022/10/02 18:41:53;;;;;;;;;;;;;;;12.37;100.00;-25414.66;5075551;28;19916;-80
2022/10/02 18:44:19;;;;;;;;;;;;;;;12.32;100.00;-25413.03;5074523;28;19920;-79